Time;durP1;ratioP1;P1;durP2;ratioP2;P2;SDS_P1;SDS_P2;PMS_P1;PMS_P2;Temp;Humidity;BMP_temperature;BMP_pressure;BME280_temperature;BME280_humidity;BME280_pressure;Samples;Min_cycle;Max_cycle;Signal;HPM_P1;HPM_P2
2022/01/15 05:00:16;;;;;;;4.45;2.47;;;2.80;99.90;;;;;;6015706;23;20191;31
2022/01/15 05:02:43;;;;;;;8.18;3.35;;;2.80;99.90;;;;;;4922032;29;20419;-69
2022/01/15 05:05:10;;;;;;;3.83;2.95;;;2.70;99.90;;;;;;4919559;29;20761;-69
2022/01/15 05:07:37;;;;;;;5.22;3.03;;;2.70;99.90;;;;;;4917649;29;20236;-69
2022/01/15 05:10:05;;;;;;;9.20;3.55;;;2.70;99.90;;;;;;4926976;29;20210;-69
2022/01/15 05:12:39;;;;;;;6.28;3.67;;;2.70;99.90;;;;;;4916916;29;20289;-68
2022/01/15 05:15:07;;;;;;;4.15;3.33;;;2.70;99.90;;;;;;4935106;29;20240;-69
2022/01/15 05:17:35;;;;;;;11.32;3.60;;;2.70;99.90;;;;;;4918069;29;20274;-68
2022/01/15 05:20:02;;;;;;;6.72;2.60;;;2.60;99.90;;;;;;4934243;29;20218;-70
2022/01/15 05:22:28;;;;;;;14.48;3.42;;;2.60;99.90;;;;;;4927720;29;20230;-70
2022/01/15 05:24:55;;;;;;;8.85;4.00;;;2.60;99.90;;;;;;4934056;29;20202;-68
2022/01/15 05:27:22;;;;;;;9.23;2.88;;;2.60;99.90;;;;;;4934238;29;20209;-69
2022/01/15 05:29:49;;;;;;;6.57;3.65;;;2.60;99.90;;;;;;4933644;29;20213;-69
2022/01/15 05:32:18;;;;;;;5.15;3.65;;;2.60;99.90;;;;;;4931962;29;20289;-70
2022/01/15 05:34:46;;;;;;;10.07;3.60;;;2.60;99.90;;;;;;4934240;29;20257;-69
2022/01/15 05:37:13;;;;;;;6.93;3.88;;;2.60;99.90;;;;;;4922094;29;20221;-69
2022/01/15 05:39:40;;;;;;;5.72;3.30;;;2.60;99.90;;;;;;4926265;29;20206;-69
2022/01/15 05:42:07;;;;;;;6.13;3.13;;;2.60;99.90;;;;;;4933303;29;20226;-69
2022/01/15 05:44:34;;;;;;;6.05;3.47;;;2.60;99.90;;;;;;4933520;29;20605;-69
2022/01/15 05:47:01;;;;;;;4.63;3.38;;;2.60;99.90;;;;;;4933112;29;20292;-69
2022/01/15 05:49:29;;;;;;;9.05;3.42;;;2.60;99.90;;;;;;4933847;29;20217;-69
2022/01/15 05:51:57;;;;;;;7.40;3.30;;;2.60;99.90;;;;;;4933546;29;20230;-69
2022/01/15 05:54:23;;;;;;;10.00;4.32;;;2.60;99.90;;;;;;4929819;29;20288;-69
2022/01/15 05:56:50;;;;;;;10.82;3.90;;;2.60;99.90;;;;;;4920652;29;20198;-69
2022/01/15 05:59:17;;;;;;;6.55;4.03;;;2.60;99.90;;;;;;4930634;29;20224;-69
2022/01/15 06:01:43;;;;;;;7.32;3.80;;;2.50;99.90;;;;;;4920833;29;20245;-70
2022/01/15 06:04:10;;;;;;;6.40;3.05;;;2.50;99.90;;;;;;4932765;29;20280;-69
2022/01/15 06:06:37;;;;;;;9.65;4.03;;;2.50;99.90;;;;;;4918716;29;20201;-69
2022/01/15 06:09:05;;;;;;;8.02;3.58;;;2.50;99.90;;;;;;4929826;29;20659;-70
2022/01/15 06:11:34;;;;;;;8.40;4.30;;;2.40;99.90;;;;;;4917472;29;20286;-69
2022/01/15 06:14:01;;;;;;;7.53;4.20;;;2.40;99.90;;;;;;4920556;29;20368;-69
2022/01/15 06:16:28;;;;;;;5.85;3.88;;;2.40;99.90;;;;;;4932603;29;20714;-69
2022/01/15 06:18:54;;;;;;;7.20;3.15;;;2.40;99.90;;;;;;4933336;29;20214;-68
2022/01/15 06:21:22;;;;;;;9.23;3.35;;;2.40;99.90;;;;;;4932527;29;20261;-68
2022/01/15 06:23:48;;;;;;;18.55;3.65;;;2.30;99.90;;;;;;4933354;29;20239;-68
2022/01/15 06:26:16;;;;;;;10.43;3.50;;;2.40;99.90;;;;;;4918173;29;20211;-69
2022/01/15 06:28:43;;;;;;;9.27;3.65;;;2.30;99.90;;;;;;4926201;29;20198;-69
2022/01/15 06:31:10;;;;;;;11.38;4.47;;;2.30;99.90;;;;;;4932654;29;20297;-69
2022/01/15 06:33:37;;;;;;;4.70;3.50;;;2.30;99.90;;;;;;4924394;29;20202;-69
2022/01/15 06:36:04;;;;;;;11.15;4.53;;;2.20;99.90;;;;;;4914850;29;20353;-69
2022/01/15 06:38:30;;;;;;;8.07;4.65;;;2.20;99.90;;;;;;4919002;29;20206;-68
2022/01/15 06:40:57;;;;;;;8.45;4.65;;;2.20;99.90;;;;;;4914455;29;20278;-68
2022/01/15 06:43:25;;;;;;;8.57;4.53;;;2.10;99.90;;;;;;4926965;29;20605;-67
2022/01/15 06:45:52;;;;;;;5.32;3.50;;;2.10;99.90;;;;;;4932482;29;20568;-69
2022/01/15 06:48:19;;;;;;;6.85;4.75;;;2.10;99.90;;;;;;4932995;29;20205;-68
2022/01/15 06:50:46;;;;;;;7.05;5.35;;;2.00;99.90;;;;;;4932824;29;20230;-68
2022/01/15 06:53:12;;;;;;;4.85;3.72;;;2.00;99.90;;;;;;4932105;29;20555;-68
2022/01/15 06:55:39;;;;;;;9.02;4.95;;;2.00;99.90;;;;;;4933193;29;20280;-69
2022/01/15 06:58:06;;;;;;;9.98;3.60;;;2.00;99.90;;;;;;4931527;29;20206;-69
2022/01/15 07:00:34;;;;;;;6.10;4.03;;;2.00;99.90;;;;;;4932688;29;20292;-68
2022/01/15 07:03:02;;;;;;;7.35;3.95;;;2.10;99.90;;;;;;4932197;29;20206;-68
2022/01/15 07:05:29;;;;;;;7.60;3.42;;;2.10;99.90;;;;;;4914440;29;20207;-68
2022/01/15 07:07:56;;;;;;;4.57;3.92;;;2.10;99.90;;;;;;4913931;29;20703;-69
2022/01/15 07:10:23;;;;;;;9.80;5.53;;;2.10;99.90;;;;;;4932523;29;20210;-69
2022/01/15 07:12:50;;;;;;;6.50;4.50;;;2.20;99.90;;;;;;4935369;29;20202;-69
2022/01/15 07:15:16;;;;;;;9.48;4.30;;;2.20;99.90;;;;;;4936364;29;20233;-69
2022/01/15 07:17:46;;;;;;;9.55;4.38;;;2.20;99.90;;;;;;4936168;29;20269;-69
2022/01/15 07:20:14;;;;;;;5.32;3.83;;;2.20;99.90;;;;;;4919432;29;20567;-69
2022/01/15 07:22:42;;;;;;;6.47;4.10;;;2.20;99.90;;;;;;4927696;29;20210;-68
2022/01/15 07:25:10;;;;;;;4.00;3.50;;;2.20;99.90;;;;;;4936056;29;20542;-68
2022/01/15 07:27:37;;;;;;;7.65;4.15;;;2.20;99.90;;;;;;4936013;29;20210;-69
2022/01/15 07:30:06;;;;;;;7.28;4.20;;;2.20;99.90;;;;;;4921839;29;20210;-69
2022/01/15 07:32:32;;;;;;;6.28;4.50;;;2.20;99.90;;;;;;4919120;29;20226;-68
2022/01/15 07:35:00;;;;;;;6.40;5.38;;;2.20;99.90;;;;;;4931110;29;20648;-69
2022/01/15 07:37:27;;;;;;;9.93;7.05;;;2.20;99.90;;;;;;4934897;29;20205;-69
2022/01/15 07:39:54;;;;;;;7.05;5.28;;;2.20;99.90;;;;;;4934822;29;20209;-69
2022/01/15 07:42:21;;;;;;;8.48;4.82;;;2.30;99.90;;;;;;4930819;29;20258;-69
2022/01/15 07:44:47;;;;;;;14.27;7.00;;;2.30;99.90;;;;;;4935641;29;20210;-68
2022/01/15 07:47:14;;;;;;;12.15;7.60;;;2.30;99.90;;;;;;4917260;29;20214;-69
2022/01/15 07:49:41;;;;;;;6.63;5.90;;;2.30;99.90;;;;;;4918254;29;20238;-69
2022/01/15 07:52:10;;;;;;;13.00;8.07;;;2.40;99.90;;;;;;4935655;29;20217;-67
2022/01/15 07:54:36;;;;;;;8.90;6.22;;;2.40;99.90;;;;;;4932923;29;20234;-68
2022/01/15 07:57:03;;;;;;;9.65;6.22;;;2.40;99.90;;;;;;4935269;29;20280;-69
2022/01/15 07:59:30;;;;;;;10.48;7.93;;;2.40;99.90;;;;;;4934298;29;20584;-68
2022/01/15 08:01:57;;;;;;;8.00;5.53;;;2.40;99.90;;;;;;4933863;29;20230;-68
2022/01/15 08:04:23;;;;;;;6.13;5.30;;;2.40;99.90;;;;;;4926770;29;20213;-68
2022/01/15 08:06:50;;;;;;;10.65;6.28;;;2.50;99.90;;;;;;4935897;29;20209;-68
2022/01/15 08:09:18;;;;;;;7.75;6.28;;;2.50;99.90;;;;;;4935370;29;20625;-68
2022/01/15 08:11:45;;;;;;;10.10;7.25;;;2.50;99.90;;;;;;4930064;29;20570;-68
2022/01/15 08:14:11;;;;;;;8.63;7.30;;;2.50;99.90;;;;;;4925285;29;20305;-68
2022/01/15 08:16:38;;;;;;;11.20;5.60;;;2.50;99.90;;;;;;4932496;29;20266;-68
2022/01/15 08:19:05;;;;;;;7.78;5.60;;;2.60;99.90;;;;;;4918522;29;20289;-69
2022/01/15 08:21:32;;;;;;;14.80;8.30;;;2.60;99.90;;;;;;4921726;29;20703;-70
2022/01/15 08:23:58;;;;;;;12.85;7.20;;;2.60;99.90;;;;;;4934882;29;20213;-69
2022/01/15 08:26:26;;;;;;;14.45;11.48;;;2.60;99.90;;;;;;4935049;29;20194;-69
2022/01/15 08:28:53;;;;;;;11.15;6.15;;;2.60;99.90;;;;;;4934338;29;20233;-69
2022/01/15 08:31:20;;;;;;;8.50;6.13;;;2.60;99.90;;;;;;4934581;29;20237;-70
2022/01/15 08:33:47;;;;;;;9.25;6.32;;;2.60;99.90;;;;;;4934122;29;20289;-68
2022/01/15 08:36:13;;;;;;;8.07;6.30;;;2.70;99.90;;;;;;4935129;29;20262;-69
2022/01/15 08:38:40;;;;;;;9.75;6.78;;;2.70;99.90;;;;;;4934016;29;20239;-69
2022/01/15 08:41:07;;;;;;;8.05;6.25;;;2.70;99.90;;;;;;4935279;29;20348;-69
2022/01/15 08:43:35;;;;;;;8.50;5.88;;;2.70;99.90;;;;;;4932698;29;20206;-69
2022/01/15 08:46:02;;;;;;;5.05;4.57;;;2.70;99.90;;;;;;4920680;29;20214;-70
2022/01/15 08:48:29;;;;;;;10.73;5.18;;;2.70;99.90;;;;;;4932616;29;20282;-69
2022/01/15 08:50:55;;;;;;;16.13;6.65;;;2.70;99.90;;;;;;4934139;29;20285;-68
2022/01/15 08:53:22;;;;;;;6.72;5.93;;;2.70;99.90;;;;;;4928616;29;20259;-69
2022/01/15 08:55:49;;;;;;;14.63;10.05;;;2.70;99.90;;;;;;4931666;29;20642;-69
2022/01/15 08:58:16;;;;;;;66.47;25.27;;;2.70;99.90;;;;;;4934022;29;20202;-69
2022/01/15 09:00:43;;;;;;;47.75;18.63;;;2.70;99.90;;;;;;4933142;29;20614;-69
2022/01/15 09:03:10;;;;;;;71.40;31.17;;;2.70;99.90;;;;;;4932336;29;20280;-69
2022/01/15 09:05:37;;;;;;;105.15;51.55;;;2.80;99.90;;;;;;4934574;29;20280;-69
2022/01/15 09:08:05;;;;;;;73.95;41.72;;;2.80;99.90;;;;;;4934097;29;20209;-68
2022/01/15 09:10:32;;;;;;;27.80;19.45;;;2.80;99.90;;;;;;4934209;29;20729;-68
2022/01/15 09:12:59;;;;;;;9.02;7.47;;;2.80;99.90;;;;;;4923246;29;20207;-71
2022/01/15 09:15:26;;;;;;;25.13;16.25;;;2.80;99.90;;;;;;4915627;29;20282;-69
2022/01/15 09:17:54;;;;;;;75.78;46.90;;;2.90;99.90;;;;;;4924226;29;20210;-70
2022/01/15 09:20:20;;;;;;;26.10;15.85;;;2.90;99.90;;;;;;4934148;29;20354;-70
2022/01/15 09:22:47;;;;;;;18.30;11.00;;;2.90;99.90;;;;;;4929554;29;20651;-70
2022/01/15 09:25:14;;;;;;;14.63;9.98;;;3.00;99.90;;;;;;4924961;29;20206;-68
2022/01/15 09:30:25;;;;;;;22.08;11.05;;;3.00;99.90;;;;;;4930092;29;20684;-70
2022/01/15 09:32:55;;;;;;;17.33;10.18;;;3.10;99.90;;;;;;4926128;29;20206;-69
2022/01/15 09:35:25;;;;;;;28.02;14.75;;;3.20;99.90;;;;;;4928865;29;20281;-69
2022/01/15 09:37:52;;;;;;;18.52;11.85;;;3.20;99.90;;;;;;4925650;29;20213;-68
2022/01/15 09:40:20;;;;;;;11.63;5.97;;;3.20;99.90;;;;;;4932435;29;20262;-69
2022/01/15 09:42:49;;;;;;;9.23;6.00;;;3.20;99.90;;;;;;4928027;29;20206;-68
2022/01/15 09:45:17;;;;;;;13.18;7.25;;;3.30;99.90;;;;;;4926985;29;20252;-69
2022/01/15 09:47:44;;;;;;;18.70;10.27;;;3.30;99.90;;;;;;4931908;29;20202;-69
2022/01/15 09:50:14;;;;;;;12.82;6.13;;;3.30;99.90;;;;;;4932483;29;20261;-69
2022/01/15 09:52:41;;;;;;;11.10;5.43;;;3.30;99.90;;;;;;4924710;29;20620;-68
2022/01/15 09:55:11;;;;;;;10.25;7.53;;;3.40;99.90;;;;;;4922685;29;20218;-70
2022/01/15 09:57:39;;;;;;;12.95;6.40;;;3.50;99.90;;;;;;4925165;29;20211;-69
2022/01/15 10:00:09;;;;;;;9.05;5.60;;;3.50;99.90;;;;;;4926911;29;20273;-69
2022/01/15 10:02:38;;;;;;;12.35;6.65;;;3.60;99.90;;;;;;4921611;29;20241;-69
2022/01/15 10:05:05;;;;;;;8.10;5.63;;;3.60;99.90;;;;;;4932951;29;20229;-69
2022/01/15 10:07:33;;;;;;;14.98;5.88;;;3.70;99.90;;;;;;4932727;29;20213;-69
2022/01/15 10:10:14;;;;;;;8.48;5.32;;;3.80;99.90;;;;;;4932173;29;20234;-69
2022/01/15 10:12:43;;;;;;;13.65;7.07;;;3.90;99.90;;;;;;4930116;29;20269;-70
2022/01/15 10:15:11;;;;;;;10.93;5.60;;;3.90;99.90;;;;;;4926545;29;20225;-69
2022/01/15 10:17:39;;;;;;;7.25;4.85;;;4.00;99.90;;;;;;4932201;29;20198;-68
2022/01/15 10:20:09;;;;;;;10.20;5.22;;;4.10;99.90;;;;;;4932617;29;20284;-69
2022/01/15 10:22:40;;;;;;;6.93;5.60;;;4.20;99.90;;;;;;4929295;29;20695;-68
2022/01/15 10:25:11;;;;;;;5.43;4.95;;;4.20;99.90;;;;;;4932173;29;20264;-69
2022/01/15 10:27:40;;;;;;;13.82;8.18;;;4.30;99.90;;;;;;4929280;29;20222;-71
2022/01/15 10:30:09;;;;;;;14.38;6.78;;;4.30;99.90;;;;;;4931790;29;20713;-69
2022/01/15 10:32:38;;;;;;;11.63;6.53;;;4.40;99.90;;;;;;4932173;29;20237;-70
2022/01/15 10:35:13;;;;;;;12.77;5.97;;;4.40;99.90;;;;;;4930825;29;20687;-69
2022/01/15 10:37:50;;;;;;;7.05;4.90;;;4.50;99.90;;;;;;4914549;29;20739;-68
2022/01/15 10:40:17;;;;;;;15.70;10.73;;;4.50;99.90;;;;;;4913237;29;20671;-68
2022/01/15 10:42:53;;;;;;;21.55;12.93;;;4.50;99.90;;;;;;4913997;29;20246;-67
2022/01/15 10:45:20;;;;;;;13.93;6.95;;;4.50;99.90;;;;;;4932162;29;20244;-69
2022/01/15 10:47:49;;;;;;;11.30;5.70;;;4.60;99.90;;;;;;4935479;29;20214;-69
2022/01/15 10:50:21;;;;;;;11.68;5.20;;;4.60;99.90;;;;;;4933885;29;20209;-69
2022/01/15 10:52:49;;;;;;;8.10;5.50;;;4.60;99.90;;;;;;4923754;29;20209;-68
2022/01/15 10:55:17;;;;;;;10.05;5.57;;;4.60;99.90;;;;;;4920629;29;20289;-68
2022/01/15 10:57:46;;;;;;;7.47;5.55;;;4.70;99.90;;;;;;4937576;29;20324;-69
2022/01/15 11:00:16;;;;;;;5.72;5.20;;;4.70;99.90;;;;;;4933634;29;20202;-68
2022/01/15 11:02:45;;;;;;;14.43;9.68;;;4.70;99.90;;;;;;4924799;29;22075;-69
2022/01/15 11:05:24;;;;;;;11.15;7.00;;;4.80;99.90;;;;;;4930177;29;20590;-69
2022/01/15 11:07:53;;;;;;;11.20;7.72;;;4.80;99.90;;;;;;4935586;29;20206;-68
2022/01/15 11:10:20;;;;;;;6.63;4.93;;;4.80;99.90;;;;;;4932798;29;20215;-70
2022/01/15 11:12:47;;;;;;;9.90;5.05;;;4.90;99.90;;;;;;4935499;29;20286;-70
2022/01/15 11:15:14;;;;;;;9.95;5.35;;;5.00;99.90;;;;;;4933434;29;20265;-69
2022/01/15 11:17:41;;;;;;;6.38;5.13;;;5.00;99.90;;;;;;4917631;29;20203;-69
2022/01/15 11:20:09;;;;;;;14.73;6.25;;;5.10;99.90;;;;;;4929767;29;20380;-69
2022/01/15 11:22:36;;;;;;;10.48;8.52;;;5.20;99.90;;;;;;4928195;29;20229;-70
2022/01/15 11:25:05;;;;;;;9.32;6.40;;;5.20;99.90;;;;;;4933560;29;20671;-70
2022/01/15 11:27:34;;;;;;;13.43;7.07;;;5.20;99.90;;;;;;4932992;29;20318;-70
2022/01/15 11:30:02;;;;;;;9.20;5.25;;;5.30;99.90;;;;;;4932165;29;20245;-70
2022/01/15 11:32:29;;;;;;;8.05;5.43;;;5.20;99.90;;;;;;4935131;29;20221;-70
2022/01/15 11:35:04;;;;;;;7.93;5.68;;;5.20;99.90;;;;;;4934333;29;20583;-70
2022/01/15 11:37:42;;;;;;;6.63;5.32;;;5.30;99.90;;;;;;4930498;29;20233;-70
2022/01/15 11:40:39;;;;;;;8.13;5.00;;;5.40;99.90;;;;;;4935136;29;20838;-70
2022/01/15 11:43:37;;;;;;;6.70;5.60;;;5.40;99.90;;;;;;4918689;29;20237;-70
2022/01/15 11:46:06;;;;;;;8.18;6.30;;;5.50;99.90;;;;;;4935170;29;20348;-70
2022/01/15 11:48:34;;;;;;;10.38;4.68;;;5.50;99.90;;;;;;4934672;29;20249;-70
2022/01/15 11:51:26;;;;;;;7.40;4.93;;;5.50;99.90;;;;;;4933828;29;20249;-70
2022/01/15 11:53:57;;;;;;;11.60;5.18;;;5.50;99.90;;;;;;4934798;29;20635;-69
2022/01/15 11:56:27;;;;;;;7.25;5.05;;;5.50;99.90;;;;;;4935496;29;20249;-69
2022/01/15 11:58:58;;;;;;;6.43;4.85;;;5.60;99.90;;;;;;4935471;29;20280;-69
2022/01/15 12:01:38;;;;;;;11.60;6.20;;;5.60;99.90;;;;;;4935581;29;20241;-69
2022/01/15 12:04:28;;;;;;;7.85;4.70;;;5.70;99.90;;;;;;4935865;29;20226;-69
2022/01/15 12:07:16;;;;;;;8.60;4.30;;;5.70;99.90;;;;;;4935288;29;20238;-69
2022/01/15 12:09:45;;;;;;;8.85;4.65;;;5.70;99.90;;;;;;4934462;29;20245;-69
2022/01/15 12:12:48;;;;;;;6.55;4.30;;;5.70;99.90;;;;;;4944374;28;20304;-70
2022/01/15 12:15:17;;;;;;;8.55;4.60;;;5.80;99.90;;;;;;4936719;29;20209;-68
2022/01/15 12:17:47;;;;;;;16.35;5.28;;;5.80;99.90;;;;;;4945732;28;20225;-71
2022/01/15 12:20:39;;;;;;;9.65;4.93;;;5.80;99.90;;;;;;4935433;29;20636;-70
2022/01/15 12:23:27;;;;;;;10.98;4.80;;;5.80;99.90;;;;;;4936643;29;20202;-71
2022/01/15 12:25:55;;;;;;;4.82;4.43;;;5.90;99.90;;;;;;4935763;29;20202;-68
2022/01/15 12:28:27;;;;;;;15.32;5.55;;;6.00;99.90;;;;;;4934660;29;20372;-68
2022/01/15 12:30:58;;;;;;;11.35;5.05;;;6.00;99.90;;;;;;4934628;29;20233;-68
2022/01/15 12:33:25;;;;;;;14.60;4.18;;;6.10;99.90;;;;;;4935018;29;20210;-70
2022/01/15 12:35:53;;;;;;;7.10;3.92;;;6.10;99.90;;;;;;4935422;29;20603;-69
2022/01/15 12:38:25;;;;;;;9.73;4.43;;;6.10;99.90;;;;;;4935045;29;20210;-70
2022/01/15 12:40:53;;;;;;;7.47;4.32;;;6.20;99.90;;;;;;4919261;29;20774;-69
2022/01/15 12:43:24;;;;;;;13.75;4.65;;;6.20;99.90;;;;;;4949841;29;20221;-69
2022/01/15 12:45:53;;;;;;;7.40;4.63;;;6.20;99.90;;;;;;4953836;28;20582;-69
2022/01/15 12:48:22;;;;;;;6.38;4.25;;;6.30;99.90;;;;;;4940405;28;20356;-69
2022/01/15 12:50:51;;;;;;;10.68;5.13;;;6.30;99.90;;;;;;4935346;29;20221;-69
2022/01/15 12:53:19;;;;;;;11.68;5.00;;;6.30;99.90;;;;;;4954187;28;20307;-69
2022/01/15 12:55:45;;;;;;;12.50;7.30;;;6.40;99.90;;;;;;4941765;28;20234;-68
2022/01/15 12:58:16;;;;;;;18.25;9.20;;;6.40;99.90;;;;;;4934103;29;20206;-70
2022/01/15 13:00:44;;;;;;;6.65;4.60;;;6.40;99.90;;;;;;4934590;29;20242;-70
2022/01/15 13:03:12;;;;;;;11.77;5.50;;;6.40;99.90;;;;;;4934919;29;20590;-71
2022/01/15 13:05:40;;;;;;;12.35;6.82;;;6.40;99.90;;;;;;4934720;29;20220;-69
2022/01/15 13:08:10;;;;;;;6.65;3.90;;;6.40;99.90;;;;;;4936159;29;20268;-68
2022/01/15 13:10:47;;;;;;;5.65;3.08;;;6.40;99.90;;;;;;4945118;28;20248;-69
2022/01/15 13:13:22;;;;;;;9.27;4.25;;;6.40;99.90;;;;;;4953085;28;20229;-70
2022/01/15 13:15:59;;;;;;;12.90;3.80;;;6.40;99.90;;;;;;4953322;28;20212;-70
2022/01/15 13:18:28;;;;;;;7.93;3.53;;;6.40;99.90;;;;;;4941099;28;20726;-69
2022/01/15 13:20:56;;;;;;;11.07;3.92;;;6.40;99.90;;;;;;4933776;29;20312;-70
2022/01/15 13:23:25;;;;;;;8.43;2.80;;;6.40;99.90;;;;;;4933937;29;20218;-70
2022/01/15 13:25:52;;;;;;;13.73;5.10;;;6.40;99.90;;;;;;4933937;29;20671;-69
2022/01/15 13:28:20;;;;;;;6.13;3.38;;;6.40;99.90;;;;;;4931732;29;20714;-71
2022/01/15 13:30:50;;;;;;;3.28;2.55;;;6.40;99.90;;;;;;4927046;29;20218;-69
2022/01/15 13:33:18;;;;;;;8.60;3.15;;;6.50;99.90;;;;;;4933675;29;20244;-69
2022/01/15 13:35:46;;;;;;;11.82;4.40;;;6.50;99.90;;;;;;4932902;29;20671;-69
2022/01/15 13:38:14;;;;;;;9.65;4.18;;;6.50;99.90;;;;;;4933472;29;20232;-69
2022/01/15 13:40:45;;;;;;;7.60;3.75;;;6.40;99.90;;;;;;4933837;29;20301;-69
2022/01/15 13:43:24;;;;;;;7.13;3.40;;;6.40;99.90;;;;;;4933560;29;20206;-69
2022/01/15 13:45:52;;;;;;;9.57;4.10;;;6.40;99.90;;;;;;4932782;29;20257;-68
2022/01/15 13:48:24;;;;;;;17.65;3.97;;;6.30;99.90;;;;;;4949783;29;20586;-69
2022/01/15 13:53:43;;;;;;;12.95;3.38;;;6.30;99.90;;;;;;4929494;29;20217;-69
2022/01/15 13:56:13;;;;;;;8.75;3.95;;;6.20;99.90;;;;;;4940380;29;20286;-69
2022/01/15 13:58:40;;;;;;;13.57;4.22;;;6.20;99.90;;;;;;4931663;29;20210;-69
2022/01/15 14:01:23;;;;;;;8.55;3.58;;;6.20;99.90;;;;;;4932892;29;20612;-69
2022/01/15 14:03:50;;;;;;;13.45;4.40;;;6.20;99.90;;;;;;4930375;29;20206;-69
2022/01/15 14:06:18;;;;;;;7.97;3.60;;;6.20;99.90;;;;;;4926122;29;20306;-69
2022/01/15 14:08:45;;;;;;;6.43;4.55;;;6.20;99.90;;;;;;4936677;29;20210;-69
2022/01/15 14:11:13;;;;;;;9.82;4.65;;;6.20;99.90;;;;;;4935039;29;20225;-69
2022/01/15 14:13:40;;;;;;;13.52;3.75;;;6.20;99.90;;;;;;4931704;29;20218;-69
2022/01/15 14:16:21;;;;;;;6.95;4.22;;;6.20;99.90;;;;;;4948545;28;20682;-69
2022/01/15 14:18:59;;;;;;;8.55;4.32;;;6.20;99.90;;;;;;4929895;29;20326;-68
2022/01/15 14:21:42;;;;;;;5.88;3.60;;;6.20;99.90;;;;;;4930020;29;20298;-68
2022/01/15 14:24:21;;;;;;;9.00;3.85;;;6.10;99.90;;;;;;4928650;29;20571;-68
2022/01/15 14:26:50;;;;;;;12.73;4.28;;;6.20;99.90;;;;;;4930300;29;20213;-67
2022/01/15 14:29:17;;;;;;;9.90;4.75;;;6.10;99.90;;;;;;4932688;29;20205;-69
2022/01/15 14:31:45;;;;;;;15.73;5.88;;;6.10;99.90;;;;;;4932895;29;20240;-69
2022/01/15 14:34:12;;;;;;;12.95;4.25;;;6.10;99.90;;;;;;4936358;29;20217;-69
2022/01/15 14:36:39;;;;;;;5.63;3.47;;;6.10;99.90;;;;;;4928919;29;20234;-68
2022/01/15 14:39:06;;;;;;;12.13;4.90;;;6.00;99.90;;;;;;4942220;29;20214;-68
2022/01/15 14:41:34;;;;;;;7.00;5.13;;;6.10;99.90;;;;;;4941290;29;20226;-69
2022/01/15 14:44:02;;;;;;;7.35;4.93;;;6.00;99.90;;;;;;4935985;29;20218;-69
2022/01/15 14:46:29;;;;;;;8.05;5.10;;;6.00;99.90;;;;;;4939635;29;20217;-70
2022/01/15 14:48:58;;;;;;;5.75;4.28;;;6.00;99.90;;;;;;4935680;29;20214;-69
2022/01/15 14:51:25;;;;;;;5.00;4.45;;;6.00;99.90;;;;;;4930328;29;20237;-70
2022/01/15 14:53:52;;;;;;;8.18;4.15;;;5.90;99.90;;;;;;4927909;29;20213;-70
2022/01/15 14:56:19;;;;;;;6.70;4.35;;;5.90;99.90;;;;;;4942625;29;20217;-69
2022/01/15 14:58:46;;;;;;;10.98;4.38;;;5.90;99.90;;;;;;4931518;29;20672;-69
2022/01/15 15:01:13;;;;;;;10.18;3.90;;;5.90;99.90;;;;;;4927140;29;20264;-69
2022/01/15 15:03:41;;;;;;;9.77;5.10;;;5.90;99.90;;;;;;4920915;29;20206;-70
2022/01/15 15:06:09;;;;;;;8.25;4.22;;;5.80;99.90;;;;;;4931975;29;20214;-70
2022/01/15 15:08:36;;;;;;;9.10;5.22;;;5.80;99.90;;;;;;4930139;29;20576;-69
2022/01/15 15:11:04;;;;;;;6.93;5.10;;;5.80;99.90;;;;;;4935833;29;20226;-69
2022/01/15 15:13:31;;;;;;;10.27;5.60;;;5.80;99.90;;;;;;4932816;29;20213;-69
2022/01/15 15:15:58;;;;;;;8.43;5.30;;;5.80;99.90;;;;;;4932643;29;20588;-69
2022/01/15 15:18:25;;;;;;;7.82;5.30;;;5.80;99.90;;;;;;4931549;29;20238;-69
2022/01/15 15:20:53;;;;;;;10.63;5.60;;;5.80;99.90;;;;;;4929142;29;20711;-68
2022/01/15 15:23:22;;;;;;;11.93;5.22;;;5.80;99.90;;;;;;4927990;29;20210;-69
2022/01/15 15:25:49;;;;;;;9.65;6.15;;;5.80;99.90;;;;;;4932616;29;20202;-67
2022/01/15 15:28:17;;;;;;;10.75;5.65;;;5.70;99.90;;;;;;4930571;29;20206;-68
2022/01/15 15:30:44;;;;;;;9.73;5.78;;;5.70;99.90;;;;;;4922301;29;20237;-68
2022/01/15 15:33:11;;;;;;;15.25;5.30;;;5.70;99.90;;;;;;4929169;29;20206;-68
2022/01/15 15:35:37;;;;;;;13.93;6.53;;;5.70;99.90;;;;;;4935180;29;20305;-68
2022/01/15 15:38:04;;;;;;;10.93;5.43;;;5.80;99.90;;;;;;4936020;29;20230;-68
2022/01/15 15:40:32;;;;;;;10.60;4.80;;;5.70;99.90;;;;;;4935909;29;20550;-68
2022/01/15 15:42:59;;;;;;;10.90;5.68;;;5.70;99.90;;;;;;4932247;29;20570;-69
2022/01/15 15:45:26;;;;;;;10.55;4.80;;;5.70;99.90;;;;;;4941249;29;20214;-69
2022/01/15 15:47:53;;;;;;;10.05;5.70;;;5.70;99.90;;;;;;4935056;29;20574;-68
2022/01/15 15:50:20;;;;;;;13.90;4.95;;;5.70;99.90;;;;;;4933770;29;20670;-69
2022/01/15 15:52:47;;;;;;;8.52;5.10;;;5.60;99.90;;;;;;4935322;29;20574;-68
2022/01/15 15:55:20;;;;;;;8.32;5.97;;;5.60;99.90;;;;;;4937043;29;20352;-71
2022/01/15 15:57:48;;;;;;;8.73;5.90;;;5.60;99.90;;;;;;4935732;29;20316;-69
2022/01/15 16:00:22;;;;;;;16.10;5.95;;;5.60;99.90;;;;;;4934428;29;20709;-69
2022/01/15 16:02:49;;;;;;;8.38;5.90;;;5.60;99.90;;;;;;4935466;29;20202;-70
2022/01/15 16:05:16;;;;;;;11.10;5.57;;;5.60;99.90;;;;;;4935451;29;20214;-69
2022/01/15 16:07:43;;;;;;;15.20;6.70;;;5.60;99.90;;;;;;4935503;29;20206;-69
2022/01/15 16:10:13;;;;;;;10.85;6.45;;;5.60;99.90;;;;;;4934892;29;20269;-69
2022/01/15 16:12:40;;;;;;;8.75;4.45;;;5.60;99.90;;;;;;4932289;29;20945;-69
2022/01/15 16:15:09;;;;;;;15.15;6.43;;;5.60;99.90;;;;;;4922735;29;20214;-69
2022/01/15 16:17:36;;;;;;;6.53;5.80;;;5.60;99.90;;;;;;4942015;29;20236;-69
2022/01/15 16:20:03;;;;;;;12.15;5.43;;;5.60;99.90;;;;;;4926894;29;20285;-68
2022/01/15 16:22:30;;;;;;;15.57;5.25;;;5.60;99.90;;;;;;4915447;29;20704;-69
2022/01/15 16:24:56;;;;;;;12.20;6.30;;;5.60;99.90;;;;;;4931307;29;20210;-69
2022/01/15 16:27:23;;;;;;;13.40;7.13;;;5.60;99.90;;;;;;4930998;29;20206;-68
2022/01/15 16:29:52;;;;;;;19.27;8.27;;;5.50;99.90;;;;;;4924555;29;20301;-70
2022/01/15 16:32:21;;;;;;;12.77;6.63;;;5.50;99.90;;;;;;4933631;29;21044;-68
2022/01/15 16:34:47;;;;;;;10.77;5.50;;;5.50;99.90;;;;;;4932015;29;20210;-68
2022/01/15 16:37:14;;;;;;;16.35;6.65;;;5.50;99.90;;;;;;4928595;29;20265;-68
2022/01/15 16:39:41;;;;;;;12.23;6.85;;;5.50;99.90;;;;;;4923478;29;20213;-69
2022/01/15 16:42:08;;;;;;;15.57;6.82;;;5.50;99.90;;;;;;4937786;29;20291;-69
2022/01/15 16:44:38;;;;;;;15.88;7.53;;;5.50;99.90;;;;;;4930225;28;20217;-69
2022/01/15 16:47:06;;;;;;;16.02;8.60;;;5.50;99.90;;;;;;4932458;29;20580;-69
2022/01/15 16:49:34;;;;;;;9.63;7.45;;;5.50;99.90;;;;;;4930094;29;20668;-69
2022/01/15 16:52:02;;;;;;;18.55;7.97;;;5.50;99.90;;;;;;4914446;29;20342;-70
2022/01/15 16:54:29;;;;;;;15.32;7.68;;;5.50;99.90;;;;;;4930508;29;20210;-70
2022/01/15 16:56:56;;;;;;;13.20;6.85;;;5.50;99.90;;;;;;4930317;29;20210;-69
2022/01/15 16:59:23;;;;;;;10.13;6.03;;;5.50;99.90;;;;;;4939037;29;20292;-68
2022/01/15 17:01:50;;;;;;;17.20;6.75;;;5.50;99.90;;;;;;4934285;28;20970;-69
2022/01/15 17:04:16;;;;;;;8.40;6.35;;;5.40;99.90;;;;;;4931185;29;20217;-68
2022/01/15 17:06:44;;;;;;;16.98;7.25;;;5.50;99.90;;;;;;4923511;29;20209;-68
2022/01/15 17:09:11;;;;;;;12.70;7.72;;;5.40;99.90;;;;;;4930830;29;20265;-69
2022/01/15 17:11:38;;;;;;;15.02;7.38;;;5.40;99.90;;;;;;4928163;29;20249;-70
2022/01/15 17:14:07;;;;;;;11.13;7.10;;;5.40;99.90;;;;;;4914339;29;20210;-70
2022/01/15 17:16:34;;;;;;;17.55;7.35;;;5.40;99.90;;;;;;4910692;29;20250;-70
2022/01/15 17:19:01;;;;;;;16.92;7.80;;;5.40;99.90;;;;;;4926603;29;20233;-71
2022/01/15 17:21:27;;;;;;;14.10;8.60;;;5.40;99.90;;;;;;4939375;29;20226;-68
2022/01/15 17:23:55;;;;;;;23.63;9.13;;;5.40;99.90;;;;;;4926729;29;20231;-69
2022/01/15 17:26:23;;;;;;;18.25;8.15;;;5.40;99.90;;;;;;4920082;29;20206;-69
2022/01/15 17:28:50;;;;;;;17.55;7.80;;;5.40;99.90;;;;;;4924304;29;20318;-69
2022/01/15 17:31:17;;;;;;;13.35;8.70;;;5.40;99.90;;;;;;4930679;29;20241;-69
2022/01/15 17:33:44;;;;;;;18.10;9.23;;;5.40;99.90;;;;;;4931424;29;20300;-68
2022/01/15 17:36:11;;;;;;;14.23;8.60;;;5.40;99.90;;;;;;4936559;29;20311;-68
2022/01/15 17:38:38;;;;;;;19.00;10.48;;;5.40;99.90;;;;;;4940609;28;20241;-68
2022/01/15 17:41:06;;;;;;;15.38;9.40;;;5.30;99.90;;;;;;4930730;29;20664;-68
2022/01/15 17:43:33;;;;;;;18.75;9.80;;;5.30;99.90;;;;;;4932007;29;20214;-68
2022/01/15 17:46:02;;;;;;;16.95;9.10;;;5.30;99.90;;;;;;4930896;29;20210;-68
2022/01/15 17:48:29;;;;;;;18.27;9.18;;;5.30;99.90;;;;;;4930991;29;20388;-68
2022/01/15 17:50:55;;;;;;;15.23;10.18;;;5.30;99.90;;;;;;4930207;29;20229;-69
2022/01/15 17:53:22;;;;;;;15.85;10.10;;;5.30;99.90;;;;;;4930711;29;20206;-68
2022/01/15 17:55:49;;;;;;;28.02;12.15;;;5.30;99.90;;;;;;4926480;29;20206;-69
2022/01/15 17:58:17;;;;;;;16.92;11.43;;;5.20;99.90;;;;;;4931056;29;20225;-69
2022/01/15 18:00:43;;;;;;;19.75;12.07;;;5.20;99.90;;;;;;4924582;29;20238;-69
2022/01/15 18:03:10;;;;;;;19.52;11.50;;;5.30;99.90;;;;;;4930409;29;20206;-68